CheckWX is a tool to help pilots better visualize weather data.  It is not intended as a substitute for an official pre-flight weather briefing.

21:10:25 UTC

DABS METAR
Cheikh Larbi Tébessi Airport
Tébessi, Algeria
Current

10 mins ago

DABS 292100Z 30007KT 8000 FEW020 BKN030 05/04 Q1015
Observed
Mar-29 @ 21:00 UTC
Wind
  • 300° at 7 KTS
Visibility
7998 meters
Flight Rules
MVFR
Cloud Levels
  • Few at 2,000' AGL
  • Broken at 3,000' AGL
Temperature
C / 41°F
Dewpoint
C / 39°F
Humidity
93%
Altimeter
29.97" Hg
Pressure
1014.92 hPa
Previous

1 hour ago

DABS 292000Z 31006KT 8000 FEW020 BKN030 06/05 Q1015
Observed
Mar-29 @ 20:00 UTC
Wind
  • 310° at 6 KTS
Visibility
7998 meters
Flight Rules
MVFR
Cloud Levels
  • Few at 2,000' AGL
  • Broken at 3,000' AGL
Temperature
C / 43°F
Dewpoint
C / 41°F
Humidity
93%
Altimeter
29.97" Hg
Pressure
1014.92 hPa
Previous

2 hours ago

DABS 291900Z 29005KT 8000 FEW020 BKN030 06/04 Q1014
Observed
Mar-29 @ 19:00 UTC
Wind
  • 290° at 5 KTS
Visibility
7998 meters
Flight Rules
MVFR
Cloud Levels
  • Few at 2,000' AGL
  • Broken at 3,000' AGL
Temperature
C / 43°F
Dewpoint
C / 39°F
Humidity
87%
Altimeter
29.94" Hg
Pressure
1013.92 hPa